createdAt,value
2022-10-16T00:01:30.097Z,25.80
2022-10-16T00:04:00.274Z,25.90
2022-10-16T00:06:29.732Z,26.00
2022-10-16T00:08:58.523Z,27.50
2022-10-16T00:11:29.233Z,27.30
2022-10-16T00:14:00.138Z,31.90
2022-10-16T00:16:29.457Z,26.30
2022-10-16T00:18:58.041Z,29.10
2022-10-16T00:21:29.944Z,26.50
2022-10-16T00:24:01.012Z,27.00
2022-10-16T00:26:31.260Z,27.60
2022-10-16T00:29:00.027Z,28.30
2022-10-16T00:31:28.634Z,27.40
2022-10-16T00:33:57.469Z,28.00
2022-10-16T00:36:27.435Z,27.00
2022-10-16T00:38:57.923Z,27.60
2022-10-16T00:41:28.444Z,25.20
2022-10-16T00:43:58.097Z,27.40
2022-10-16T00:46:30.359Z,27.20
2022-10-16T00:49:03.789Z,29.00
2022-10-16T00:51:35.193Z,27.90
2022-10-16T00:54:05.280Z,26.60
2022-10-16T00:56:34.388Z,28.80
2022-10-16T00:59:07.313Z,27.40
2022-10-16T01:01:36.015Z,27.40
2022-10-16T01:04:04.997Z,28.20
2022-10-16T01:06:43.827Z,26.90
2022-10-16T01:09:18.465Z,26.70
2022-10-16T01:11:56.209Z,27.70
2022-10-16T01:14:32.804Z,27.60
2022-10-16T01:17:07.608Z,33.70
2022-10-16T01:20:02.357Z,28.70
2022-10-16T01:22:39.362Z,25.20
2022-10-16T01:25:17.329Z,25.30
2022-10-16T01:27:48.190Z,27.50
2022-10-16T01:30:21.957Z,28.30
2022-10-16T01:32:55.754Z,29.40
2022-10-16T01:35:28.478Z,26.30
2022-10-16T01:38:02.742Z,25.70
2022-10-16T01:40:34.221Z,25.70
2022-10-16T01:43:08.096Z,26.10
2022-10-16T01:45:37.772Z,26.20
2022-10-16T01:48:08.463Z,22.50
2022-10-16T01:50:40.531Z,25.90
2022-10-16T01:55:45.403Z,24.20
2022-10-16T01:58:15.343Z,23.00
2022-10-16T02:00:47.391Z,21.10
2022-10-16T02:03:19.074Z,25.30
2022-10-16T02:05:51.545Z,26.40
2022-10-16T02:08:21.271Z,23.20
2022-10-16T02:10:49.676Z,23.10
2022-10-16T02:13:22.676Z,24.70
2022-10-16T02:15:51.449Z,25.90
2022-10-16T02:18:23.076Z,23.10
2022-10-16T02:20:58.048Z,23.00
2022-10-16T02:23:35.154Z,22.50
2022-10-16T02:26:07.805Z,22.30
2022-10-16T02:28:42.958Z,25.00
2022-10-16T02:31:16.814Z,21.30
2022-10-16T02:33:47.330Z,23.40
2022-10-16T02:36:16.194Z,25.30
2022-10-16T02:38:45.082Z,24.10
2022-10-16T02:41:14.553Z,27.30
2022-10-16T02:43:42.927Z,22.10
2022-10-16T02:46:11.403Z,24.30
2022-10-16T02:48:39.962Z,26.10
2022-10-16T02:51:08.594Z,22.70
2022-10-16T02:53:37.025Z,22.70
2022-10-16T02:56:05.979Z,25.30
2022-10-16T02:58:34.698Z,20.80
2022-10-16T03:01:03.449Z,22.40
2022-10-16T03:03:31.969Z,21.90
2022-10-16T03:06:00.714Z,21.70
2022-10-16T03:08:29.822Z,22.00
2022-10-16T03:10:58.217Z,21.50
2022-10-16T03:13:26.618Z,21.40
2022-10-16T03:15:55.146Z,21.30
2022-10-16T03:18:23.805Z,22.40
2022-10-16T03:20:52.213Z,21.00
2022-10-16T03:23:20.677Z,21.60
2022-10-16T03:25:49.117Z,22.10
2022-10-16T03:28:18.024Z,27.80
2022-10-16T03:30:46.501Z,24.80
2022-10-16T03:33:15.058Z,21.70
2022-10-16T03:35:43.445Z,24.50
2022-10-16T03:38:11.902Z,27.10
2022-10-16T03:40:40.293Z,25.50
2022-10-16T03:43:09.069Z,24.50
2022-10-16T03:45:37.825Z,23.70
2022-10-16T03:48:06.286Z,26.50
2022-10-16T03:50:34.796Z,28.40
2022-10-16T03:53:03.740Z,27.40
2022-10-16T03:55:32.176Z,23.80
2022-10-16T03:58:00.523Z,28.40
2022-10-16T04:00:29.619Z,31.50
2022-10-16T04:02:58.018Z,27.10
2022-10-16T04:05:26.708Z,25.60
2022-10-16T04:07:55.819Z,29.90
2022-10-16T04:10:24.263Z,31.00
2022-10-16T04:12:55.035Z,25.40
2022-10-16T04:15:23.732Z,24.80
2022-10-16T04:17:52.853Z,25.80
2022-10-16T04:20:21.600Z,27.60
2022-10-16T04:22:49.929Z,25.70
2022-10-16T04:25:18.422Z,26.70
2022-10-16T04:27:46.809Z,27.50
2022-10-16T04:30:15.453Z,28.70
2022-10-16T04:32:44.117Z,25.60
2022-10-16T04:35:12.577Z,28.20
2022-10-16T04:37:41.037Z,28.40
2022-10-16T04:40:10.745Z,26.70
2022-10-16T04:42:39.495Z,29.20
2022-10-16T04:45:12.157Z,25.60
2022-10-16T04:47:43.848Z,28.30
2022-10-16T04:50:12.339Z,31.40
2022-10-16T04:52:40.931Z,26.70
2022-10-16T04:55:10.284Z,27.40
2022-10-16T04:57:38.769Z,31.00
2022-10-16T05:00:09.466Z,30.70
2022-10-16T05:02:37.947Z,33.70
2022-10-16T05:05:08.843Z,29.70
2022-10-16T05:07:37.234Z,31.30
2022-10-16T05:10:07.432Z,28.80
2022-10-16T05:12:35.864Z,27.90
2022-10-16T05:15:05.929Z,24.30
2022-10-16T05:17:34.378Z,26.50
2022-10-16T05:20:03.601Z,28.50
2022-10-16T05:22:31.988Z,25.10
2022-10-16T05:25:00.347Z,25.70
2022-10-16T05:27:29.228Z,26.80
2022-10-16T05:29:57.772Z,23.40
2022-10-16T05:32:26.227Z,26.40
2022-10-16T05:34:54.620Z,26.00
2022-10-16T05:37:23.597Z,27.20
2022-10-16T05:39:52.376Z,29.40
2022-10-16T05:42:20.752Z,25.20
2022-10-16T05:44:49.221Z,24.20
2022-10-16T05:47:17.655Z,27.40
2022-10-16T05:49:46.440Z,24.60
2022-10-16T05:52:15.002Z,27.90
2022-10-16T05:54:43.921Z,27.00
2022-10-16T05:57:12.311Z,27.90
2022-10-16T05:59:40.663Z,23.60
2022-10-16T06:02:12.723Z,23.50
2022-10-16T06:07:08.762Z,31.80
2022-10-16T06:09:37.232Z,26.80
2022-10-16T06:12:05.865Z,24.50
2022-10-16T06:14:34.711Z,27.90
2022-10-16T06:17:03.692Z,26.70
2022-10-16T06:19:32.321Z,26.90
2022-10-16T06:22:02.942Z,26.90
2022-10-16T06:24:31.367Z,25.10
2022-10-16T06:26:59.855Z,21.30
2022-10-16T06:29:36.407Z,26.00
2022-10-16T06:32:05.285Z,24.70
2022-10-16T06:34:35.183Z,27.40
2022-10-16T06:37:04.171Z,25.30
2022-10-16T06:39:32.714Z,30.20
2022-10-16T06:42:05.099Z,21.80
2022-10-16T06:44:38.830Z,26.00
2022-10-16T06:47:07.514Z,21.70
2022-10-16T06:49:36.506Z,22.20
2022-10-16T06:52:05.980Z,27.50
2022-10-16T06:54:42.112Z,23.20
2022-10-16T06:57:11.572Z,28.90
2022-10-16T06:59:43.063Z,26.10
2022-10-16T07:02:14.317Z,24.60
2022-10-16T07:04:42.676Z,23.70
2022-10-16T07:07:11.179Z,21.20
2022-10-16T07:09:40.870Z,20.70
2022-10-16T07:12:09.692Z,22.90
2022-10-16T07:14:38.248Z,22.10
2022-10-16T07:17:07.274Z,21.80
2022-10-16T07:19:36.189Z,40.00
2022-10-16T07:22:05.203Z,29.40
2022-10-16T07:24:33.890Z,21.50
2022-10-16T07:27:02.574Z,19.90
2022-10-16T07:29:33.569Z,21.90
2022-10-16T07:32:03.536Z,22.20
2022-10-16T07:34:32.009Z,20.00
2022-10-16T07:37:00.585Z,22.90
2022-10-16T07:39:29.867Z,22.80
2022-10-16T07:41:58.727Z,26.90
2022-10-16T07:44:27.197Z,27.80
2022-10-16T07:46:56.043Z,22.80
2022-10-16T07:49:24.569Z,21.20
2022-10-16T07:51:53.022Z,19.10
2022-10-16T07:54:22.372Z,18.30
2022-10-16T07:56:51.084Z,20.10
2022-10-16T07:59:20.137Z,21.00
2022-10-16T08:01:50.603Z,17.30
2022-10-16T08:04:19.523Z,21.00
2022-10-16T08:06:50.191Z,60.00
2022-10-16T08:09:18.929Z,43.70
2022-10-16T08:11:47.663Z,20.80
2022-10-16T08:14:16.155Z,20.10
2022-10-16T08:16:45.339Z,20.50
2022-10-16T08:19:14.354Z,28.60
2022-10-16T08:21:43.078Z,21.20
2022-10-16T08:24:12.805Z,21.40
2022-10-16T08:26:41.577Z,18.20
2022-10-16T08:29:09.974Z,19.50
2022-10-16T08:31:45.058Z,20.10
2022-10-16T08:34:13.880Z,17.40
2022-10-16T08:36:42.647Z,38.90
2022-10-16T08:39:11.582Z,21.90
2022-10-16T08:42:16.930Z,20.70
2022-10-16T08:45:16.361Z,16.70
2022-10-16T08:47:50.852Z,17.90
2022-10-16T08:50:25.437Z,23.00
2022-10-16T08:53:00.132Z,39.90
2022-10-16T08:55:35.559Z,26.90
2022-10-16T08:58:13.170Z,17.60
2022-10-16T09:00:46.176Z,19.70
2022-10-16T09:03:25.320Z,22.80
2022-10-16T09:06:18.997Z,29.70
2022-10-16T09:08:58.744Z,24.10
2022-10-16T09:11:37.068Z,24.00
2022-10-16T09:14:22.194Z,18.40
2022-10-16T09:16:57.008Z,17.40
2022-10-16T09:19:31.386Z,16.80
2022-10-16T09:22:03.134Z,16.90
2022-10-16T09:24:31.458Z,15.40
2022-10-16T09:27:00.466Z,20.10
2022-10-16T09:29:29.329Z,18.30
2022-10-16T09:32:12.399Z,16.70
2022-10-16T09:34:46.333Z,15.40
2022-10-16T09:37:18.767Z,17.20
2022-10-16T09:39:53.020Z,19.50
2022-10-16T09:42:26.031Z,22.80
2022-10-16T09:44:55.147Z,17.40
2022-10-16T09:47:26.833Z,21.60
2022-10-16T09:50:00.191Z,21.90
2022-10-16T09:52:29.649Z,18.70
2022-10-16T09:54:59.799Z,16.60
2022-10-16T09:57:28.772Z,19.10
2022-10-16T09:59:59.263Z,26.10
2022-10-16T10:02:31.011Z,16.70
2022-10-16T10:04:59.416Z,20.50
2022-10-16T10:07:33.433Z,54.60
2022-10-16T10:10:05.431Z,22.40
2022-10-16T10:12:36.842Z,20.90
2022-10-16T10:17:46.103Z,17.90
2022-10-16T10:20:24.808Z,18.90
2022-10-16T10:22:53.295Z,18.90
2022-10-16T10:25:38.320Z,17.30
2022-10-16T10:28:36.255Z,17.10
2022-10-16T10:31:14.306Z,17.00
2022-10-16T10:33:47.496Z,17.60
2022-10-16T10:36:28.542Z,17.80
2022-10-16T10:39:01.009Z,20.00
2022-10-16T10:41:55.245Z,21.10
2022-10-16T10:44:36.972Z,21.60
2022-10-16T10:47:14.312Z,18.40
2022-10-16T10:49:57.324Z,18.70
2022-10-16T10:52:42.365Z,18.90
2022-10-16T10:55:20.787Z,18.40
2022-10-16T10:58:06.908Z,23.90
2022-10-16T11:00:46.658Z,20.00
2022-10-16T11:03:35.874Z,16.60
2022-10-16T11:06:09.897Z,16.50
2022-10-16T11:08:43.088Z,14.60
2022-10-16T11:11:15.976Z,13.30
2022-10-16T11:13:55.644Z,17.40
2022-10-16T11:16:29.208Z,15.30
2022-10-16T11:19:03.887Z,17.20
2022-10-16T11:21:43.103Z,18.40
2022-10-16T11:24:19.923Z,19.50
2022-10-16T11:26:50.494Z,16.10
2022-10-16T11:29:24.316Z,18.30
2022-10-16T11:31:56.512Z,16.60
2022-10-16T11:34:32.888Z,18.40
2022-10-16T11:37:11.367Z,18.40
2022-10-16T11:39:42.267Z,16.80
2022-10-16T11:42:14.170Z,16.60
2022-10-16T11:44:55.853Z,17.20
2022-10-16T11:50:29.787Z,19.20
2022-10-16T11:53:10.094Z,16.40
2022-10-16T11:55:44.544Z,17.30
2022-10-16T11:58:23.442Z,17.40
2022-10-16T12:00:59.380Z,17.70
2022-10-16T12:03:34.098Z,17.40
2022-10-16T12:06:31.549Z,18.30
2022-10-16T12:09:01.681Z,19.10
2022-10-16T12:11:36.897Z,19.80
2022-10-16T12:14:22.195Z,18.50
2022-10-16T12:16:56.046Z,21.80
2022-10-16T12:19:26.913Z,23.40
2022-10-16T12:21:58.458Z,20.80
2022-10-16T12:24:38.305Z,23.90
2022-10-16T12:27:22.617Z,31.00
2022-10-16T12:29:57.097Z,25.60
2022-10-16T12:32:47.189Z,21.90
2022-10-16T12:35:23.155Z,22.60
2022-10-16T12:37:56.767Z,28.10
2022-10-16T12:40:30.347Z,20.90
2022-10-16T12:43:11.826Z,17.50
2022-10-16T12:45:41.208Z,20.30
2022-10-16T12:48:29.167Z,21.70
2022-10-16T12:51:13.627Z,22.80
2022-10-16T12:53:42.299Z,20.30
2022-10-16T12:56:22.974Z,22.90
2022-10-16T12:59:05.880Z,21.80
2022-10-16T13:01:49.560Z,19.60
2022-10-16T13:04:37.308Z,21.00
2022-10-16T13:07:24.579Z,20.70
2022-10-16T13:10:07.210Z,22.90
2022-10-16T13:13:02.153Z,20.50
2022-10-16T13:15:44.818Z,17.40
2022-10-16T13:18:19.284Z,18.00
2022-10-16T13:21:10.079Z,20.40
2022-10-16T13:26:32.004Z,22.80
2022-10-16T13:29:02.325Z,23.00
2022-10-16T13:31:39.372Z,26.20
2022-10-16T13:34:15.231Z,19.20
2022-10-16T13:36:48.124Z,21.90
2022-10-16T13:39:22.116Z,22.70
2022-10-16T13:42:06.396Z,22.40
2022-10-16T13:44:43.419Z,20.30
2022-10-16T13:47:19.390Z,23.90
2022-10-16T13:49:59.384Z,19.10
2022-10-16T13:52:28.365Z,22.10
2022-10-16T13:55:00.934Z,22.50
2022-10-16T13:57:30.876Z,20.50
2022-10-16T13:59:59.573Z,18.60
2022-10-16T14:02:32.649Z,24.40
2022-10-16T14:05:02.604Z,20.20
2022-10-16T14:11:24.233Z,30.30
2022-10-16T14:13:53.879Z,33.00
2022-10-16T14:16:25.373Z,46.00
2022-10-16T14:18:59.154Z,39.90
2022-10-16T14:21:28.536Z,23.70
2022-10-16T14:23:57.306Z,25.00
2022-10-16T14:26:28.484Z,26.80
2022-10-16T14:29:14.791Z,25.10
2022-10-16T14:31:43.639Z,22.00
2022-10-16T14:34:28.899Z,18.10
2022-10-16T14:36:59.193Z,23.60
2022-10-16T14:39:27.985Z,23.10
2022-10-16T14:41:58.877Z,27.10
2022-10-16T14:44:32.876Z,24.00
2022-10-16T14:47:10.105Z,21.40
2022-10-16T14:49:38.464Z,20.00
2022-10-16T14:52:10.914Z,19.30
2022-10-16T14:54:39.640Z,21.40
2022-10-16T14:57:18.528Z,19.80
2022-10-16T14:59:47.797Z,20.10
2022-10-16T15:02:25.778Z,19.20
2022-10-16T15:04:54.501Z,20.30
2022-10-16T15:07:23.186Z,22.10
2022-10-16T15:09:52.596Z,23.60
2022-10-16T15:12:21.372Z,22.40
2022-10-16T15:14:49.859Z,23.20
2022-10-16T15:17:21.384Z,23.70
2022-10-16T15:19:51.598Z,20.90
2022-10-16T15:22:21.078Z,22.60
2022-10-16T15:24:49.525Z,20.20
2022-10-16T15:27:17.859Z,23.00
2022-10-16T15:29:46.317Z,27.10
2022-10-16T15:32:14.813Z,25.00
2022-10-16T15:34:43.475Z,25.00
2022-10-16T15:37:13.981Z,26.00
2022-10-16T15:39:42.774Z,29.50
2022-10-16T15:42:11.222Z,29.00
2022-10-16T15:44:39.603Z,52.90
2022-10-16T15:47:09.660Z,54.40
2022-10-16T15:49:38.218Z,61.20
2022-10-16T15:52:06.611Z,39.80
2022-10-16T15:54:35.596Z,29.60
2022-10-16T15:57:04.297Z,26.30
2022-10-16T15:59:32.894Z,26.60
2022-10-16T16:02:01.495Z,24.00
2022-10-16T16:04:43.418Z,20.30
2022-10-16T16:07:12.792Z,20.90
2022-10-16T16:09:41.432Z,25.50
2022-10-16T16:12:10.118Z,22.60
2022-10-16T16:14:39.224Z,26.40
2022-10-16T16:17:08.338Z,25.20
2022-10-16T16:19:36.926Z,27.70
2022-10-16T16:22:09.547Z,32.60
2022-10-16T16:24:41.582Z,35.90
2022-10-16T16:27:10.369Z,32.70
2022-10-16T16:29:38.808Z,29.40
2022-10-16T16:32:07.941Z,23.30
2022-10-16T16:34:36.600Z,23.30
2022-10-16T16:37:15.295Z,27.10
2022-10-16T16:39:44.165Z,23.40
2022-10-16T16:42:12.820Z,24.90
2022-10-16T16:44:41.323Z,22.30
2022-10-16T16:47:11.385Z,23.00
2022-10-16T16:49:40.763Z,25.80
2022-10-16T16:52:09.327Z,23.40
2022-10-16T16:54:38.026Z,20.90
2022-10-16T16:57:07.740Z,24.60
2022-10-16T16:59:36.298Z,25.50
2022-10-16T17:02:05.251Z,24.00
2022-10-16T17:04:34.562Z,22.60
2022-10-16T17:07:03.072Z,29.90
2022-10-16T17:09:33.392Z,28.20
2022-10-16T17:12:01.862Z,20.80
2022-10-16T17:14:30.387Z,24.30
2022-10-16T17:16:59.454Z,24.80
2022-10-16T17:19:34.357Z,23.80
2022-10-16T17:22:04.239Z,25.30
2022-10-16T17:24:34.204Z,26.00
2022-10-16T17:27:07.063Z,27.40
2022-10-16T17:29:36.189Z,26.00
2022-10-16T17:32:06.204Z,28.40
2022-10-16T17:34:35.907Z,25.20
2022-10-16T17:37:04.649Z,27.90
2022-10-16T17:39:33.110Z,32.70
2022-10-16T17:42:02.530Z,31.90
2022-10-16T17:44:35.238Z,28.30
2022-10-16T17:47:03.926Z,30.60
2022-10-16T17:49:35.736Z,30.70
2022-10-16T17:52:08.783Z,32.70
2022-10-16T17:54:40.558Z,34.40
2022-10-16T17:57:10.190Z,32.40
2022-10-16T17:59:41.277Z,26.80
2022-10-16T18:02:11.569Z,23.70
2022-10-16T18:04:40.769Z,21.90
2022-10-16T18:07:09.491Z,24.50
2022-10-16T18:09:49.568Z,25.30
2022-10-16T18:12:37.635Z,22.20
2022-10-16T18:15:17.217Z,26.60
2022-10-16T18:17:50.796Z,24.80
2022-10-16T18:20:20.270Z,25.90
2022-10-16T18:22:52.816Z,26.50
2022-10-16T18:25:25.303Z,24.30
2022-10-16T18:27:56.207Z,23.10
2022-10-16T18:30:28.294Z,24.40
2022-10-16T18:33:03.674Z,21.80
2022-10-16T18:35:36.449Z,25.50
2022-10-16T18:38:13.458Z,22.70
2022-10-16T18:40:50.693Z,26.10
2022-10-16T18:43:26.778Z,26.80
2022-10-16T18:46:05.320Z,22.60
2022-10-16T18:48:37.570Z,28.00
2022-10-16T18:51:19.303Z,24.50
2022-10-16T18:53:53.570Z,28.50
2022-10-16T18:56:32.721Z,26.80
2022-10-16T18:59:07.246Z,26.40
2022-10-16T19:01:39.357Z,25.60
2022-10-16T19:04:18.157Z,29.50
2022-10-16T19:06:55.451Z,30.30
2022-10-16T19:09:29.907Z,26.00
2022-10-16T19:12:05.324Z,50.70
2022-10-16T19:14:43.747Z,56.80
2022-10-16T19:17:18.805Z,39.20
2022-10-16T19:19:56.424Z,30.30
2022-10-16T19:22:51.526Z,29.20
2022-10-16T19:25:28.456Z,30.00
2022-10-16T19:28:10.990Z,27.90
2022-10-16T19:30:48.753Z,27.40
2022-10-16T19:33:19.871Z,25.20
2022-10-16T19:35:51.649Z,29.20
2022-10-16T19:38:22.407Z,27.10
2022-10-16T19:40:52.331Z,27.90
2022-10-16T19:43:34.136Z,28.10
2022-10-16T19:46:12.536Z,34.50
2022-10-16T19:48:54.573Z,27.30
2022-10-16T19:51:26.998Z,34.70
2022-10-16T19:54:01.634Z,35.40
2022-10-16T19:56:33.529Z,37.80
2022-10-16T19:59:04.298Z,29.90
2022-10-16T20:01:33.721Z,33.10
2022-10-16T20:04:06.297Z,30.80
2022-10-16T20:06:35.176Z,30.30
2022-10-16T20:09:04.118Z,30.80
2022-10-16T20:11:34.359Z,28.00
2022-10-16T20:14:04.063Z,26.60
2022-10-16T20:16:33.125Z,29.00
2022-10-16T20:19:02.851Z,26.70
2022-10-16T20:21:33.057Z,28.50
2022-10-16T20:24:04.438Z,27.20
2022-10-16T20:26:33.480Z,32.00
2022-10-16T20:29:01.954Z,26.60
2022-10-16T20:31:32.656Z,27.40
2022-10-16T20:34:03.991Z,29.30
2022-10-16T20:36:34.082Z,31.10
2022-10-16T20:39:04.143Z,26.10
2022-10-16T20:41:32.831Z,28.00
2022-10-16T20:44:01.564Z,28.40
2022-10-16T20:46:30.203Z,28.20
2022-10-16T20:49:06.121Z,32.00
2022-10-16T20:51:39.843Z,29.20
2022-10-16T20:54:11.033Z,29.10
2022-10-16T20:56:39.968Z,31.20
2022-10-16T20:59:08.423Z,28.30
2022-10-16T21:01:37.082Z,28.00
2022-10-16T21:04:08.150Z,27.30
2022-10-16T21:06:38.667Z,26.80
2022-10-16T21:09:07.549Z,26.40
2022-10-16T21:11:36.683Z,26.80
2022-10-16T21:14:07.250Z,26.70
2022-10-16T21:16:36.258Z,30.20
2022-10-16T21:19:04.916Z,27.80
2022-10-16T21:21:37.100Z,25.30
2022-10-16T21:24:06.859Z,23.80
2022-10-16T21:26:35.368Z,26.10
2022-10-16T21:29:06.579Z,24.20
2022-10-16T21:31:35.475Z,25.50
2022-10-16T21:34:04.486Z,27.20
2022-10-16T21:36:35.857Z,23.00
2022-10-16T21:39:05.931Z,24.80
2022-10-16T21:41:35.946Z,28.30
2022-10-16T21:44:05.509Z,22.70
2022-10-16T21:46:35.880Z,28.60
2022-10-16T21:49:06.908Z,25.50
2022-10-16T21:51:38.163Z,25.40
2022-10-16T21:54:09.988Z,24.10
2022-10-16T21:56:39.236Z,22.60
2022-10-16T21:59:08.167Z,25.90
2022-10-16T22:01:36.544Z,22.50
2022-10-16T22:04:04.994Z,23.80
2022-10-16T22:06:33.398Z,26.60
2022-10-16T22:09:01.842Z,23.00
2022-10-16T22:11:35.972Z,26.10
2022-10-16T22:14:05.795Z,21.20
2022-10-16T22:16:35.171Z,22.40
2022-10-16T22:19:06.540Z,23.20
2022-10-16T22:21:35.631Z,22.80
2022-10-16T22:24:05.413Z,22.60
2022-10-16T22:26:34.507Z,24.90
2022-10-16T22:29:03.283Z,22.60
2022-10-16T22:31:32.424Z,26.40
2022-10-16T22:34:02.409Z,23.10
2022-10-16T22:36:31.799Z,23.20
2022-10-16T22:39:00.722Z,24.40
2022-10-16T22:41:29.378Z,20.00
2022-10-16T22:43:57.938Z,17.40
2022-10-16T22:46:28.153Z,21.00
2022-10-16T22:48:57.295Z,21.90
2022-10-16T22:51:28.523Z,18.90
2022-10-16T22:53:57.940Z,21.80
2022-10-16T22:56:27.089Z,22.10
2022-10-16T22:58:55.554Z,19.20
2022-10-16T23:01:26.686Z,22.80
2022-10-16T23:03:55.241Z,24.90
2022-10-16T23:06:23.593Z,24.80
2022-10-16T23:08:52.885Z,19.70
2022-10-16T23:11:22.102Z,22.50
2022-10-16T23:13:50.772Z,22.90
2022-10-16T23:16:21.273Z,23.10
2022-10-16T23:18:50.086Z,24.90
2022-10-16T23:21:20.315Z,21.80
2022-10-16T23:23:50.067Z,20.50
2022-10-16T23:26:20.311Z,19.70
2022-10-16T23:28:48.997Z,21.20
2022-10-16T23:31:17.811Z,19.30
2022-10-16T23:33:46.127Z,16.60
2022-10-16T23:36:17.544Z,21.80
2022-10-16T23:38:47.123Z,20.10
2022-10-16T23:41:16.383Z,20.20
2022-10-16T23:43:44.734Z,22.80
2022-10-16T23:46:14.623Z,22.00
2022-10-16T23:48:43.548Z,20.40
2022-10-16T23:51:12.398Z,16.40
2022-10-16T23:53:41.394Z,18.80
2022-10-16T23:56:10.098Z,19.60
2022-10-16T23:58:38.565Z,19.90
